INFORMACIÓN METAR y TAF
METAR FOR LEXJ
ADDS - METARS form results

(2018 UTC 28 January 2020)
Data provider http://aviationweather.gov/metar/data/
 
METAR text: LEXJ 282000Z 22005KT CAVOK 10/06 Q1021
Conditions at: LEXJ (SANTANDER/PARAYA, ES) observed 2000 UTC 28 January 2020
Temperature: 10.0°C (50°F)
Dewpoint: 6.0°C (43°F) [RH = 76%]
Pressure (altimeter): 30.15 inches Hg (1021.0 mb)
Winds: from the SW (220 degrees) at 6 MPH (5 knots; 2.6 m/s)
Visibility: 6 or more miles (10+ km)
Ceiling: ceiling and visibility are OK
Clouds: unknown
Weather: no significant weather observed at this time

METAR text: LEXJ 281930Z 22006KT CAVOK 10/07 Q1021
Conditions at: LEXJ (SANTANDER/PARAYA, ES) observed 1930 UTC 28 January 2020
Temperature: 10.0°C (50°F)
Dewpoint: 7.0°C (45°F) [RH = 82%]
Pressure (altimeter): 30.15 inches Hg (1021.0 mb)
Winds: from the SW (220 degrees) at 7 MPH (6 knots; 3.1 m/s)
Visibility: 6 or more miles (10+ km)
Ceiling: ceiling and visibility are OK
Clouds: unknown
Weather: no significant weather observed at this time

Forecast for: LEXJ (SANTANDER/PARAYA, ES)
Text: TAF LEXJ 281400Z 2815/2915 VRB05KT 9999 SCT035 TX15/2914Z TN09/2820Z
Forecast period: 1500 UTC 28 January 2020 to 1500 UTC 29 January 2020
Forecast type: FROM: standard forecast or significant change
Winds: variable direction winds at 6 MPH (5 knots; 2.6 m/s)
Visibility: 6 or more miles 10+ km)
Ceiling: at least 12,000 feet AGL
Clouds: scattered clouds at 3500 feet AGL
Weather: no significant weather forecast for this period
Text: PROB30
Forecast period: 1500 to 1600 UTC 28 January 2020
Forecast type: TEMPORARY: The following changes expected for less than half the time period
Winds: from the WNW (300 degrees) at 12 MPH (10 knots; 5.1 m/s)
Visibility: missing
Ceiling: unknown
Clouds: missing
Weather: no significant weather forecast for this period

 MAPA DE AEROPUERTO

 INFORMACIÓN DE PISTA
Pista 11 Longitud 7612 ft Ancho 148 ft
Elevación 11 ft Umbral desplazado 0 ft Rumbo de pista 110
Pista 29 Longitud 7612 ft Ancho 148 ft
Elevación 12 ft Umbral desplazado 0 ft Rumbo de pista 290

 FRECUANCIAS DEL AEROPUERTO
Tipo APP Nombre APP Frecuencia 118.375 MHZ
Tipo GND Nombre GND Frecuencia 121.7 MHZ
Tipo TWR Nombre TWR Frecuencia 118.1 MHZ

 RADIO AYUDAS DEL AEROPUERTO
Tipo NDB Nombre Santander Frecuencia 416 KHZ
Tipo VOR-DME Nombre Santander Frecuencia 115300 KHZ



Powered by Virtual Airlines Manager [v2.6.2]